Witts, Indiana
Current Conditions -  °F | °C
As of 7:15 PM on Sunday 23 Nov 2014 (Local Time) from KI67 Reporting Station
Overcast Overcast  
Wind Chill: 55°   Ceiling: 1300
Heat Index: 55°   Visibility: 7mi
Dew Point: 52°   Wind: 13mph
Humidity: 88%   Direction: 150°SSE
Pressure: 29.43"   Gusts: 17mph
Location:  39.6086°N, 84.9137°W
Report Text: KI67 240015Z AUTO 15011G15KT 120V180 7SM OVC013 13/11 A2943 RMK AO1 P0006
Loading
Personal Weather Stations






























Interactive Weather Map New forecast layout! Learn more

10-Day Weather Forecast

Advertisements
Track Severe Weather on mobile